sensor_id;sensor_type;location;lat;lon;timestamp;pressure;altitude;pressure_sealevel;temperature;humidity
73518;BME280;61766;60.318;25.044;2023-07-13T00:00:40;100605.21;;;17.94;36.27
73518;BME280;61766;60.318;25.044;2023-07-13T00:03:06;100605.71;;;17.94;35.93
73518;BME280;61766;60.318;25.044;2023-07-13T00:05:31;100602.86;;;17.93;35.90
73518;BME280;61766;60.318;25.044;2023-07-13T00:07:57;100599.11;;;17.66;36.62
73518;BME280;61766;60.318;25.044;2023-07-13T00:10:23;100612.76;;;16.66;39.43
73518;BME280;61766;60.318;25.044;2023-07-13T00:12:48;100609.75;;;16.35;40.96
73518;BME280;61766;60.318;25.044;2023-07-13T00:15:18;100603.03;;;16.72;39.89
73518;BME280;61766;60.318;25.044;2023-07-13T00:17:40;100601.85;;;16.99;38.95
73518;BME280;61766;60.318;25.044;2023-07-13T00:20:07;100604.95;;;16.80;39.89
73518;BME280;61766;60.318;25.044;2023-07-13T00:22:32;100593.50;;;16.72;39.68
73518;BME280;61766;60.318;25.044;2023-07-13T00:24:57;100585.00;;;16.65;39.52
73518;BME280;61766;60.318;25.044;2023-07-13T00:27:23;100591.96;;;16.46;40.81
73518;BME280;61766;60.318;25.044;2023-07-13T00:29:49;100594.20;;;16.14;41.14
73518;BME280;61766;60.318;25.044;2023-07-13T00:32:15;100588.82;;;16.23;40.33
73518;BME280;61766;60.318;25.044;2023-07-13T00:34:41;100587.14;;;16.58;40.13
73518;BME280;61766;60.318;25.044;2023-07-13T00:37:07;100588.85;;;16.08;40.61
73518;BME280;61766;60.318;25.044;2023-07-13T00:39:32;100584.79;;;15.99;40.44
73518;BME280;61766;60.318;25.044;2023-07-13T00:41:58;100580.87;;;16.42;39.81
73518;BME280;61766;60.318;25.044;2023-07-13T00:44:23;100578.58;;;16.62;39.56
73518;BME280;61766;60.318;25.044;2023-07-13T00:46:49;100577.77;;;16.58;39.52
73518;BME280;61766;60.318;25.044;2023-07-13T00:49:16;100575.68;;;16.41;39.17
73518;BME280;61766;60.318;25.044;2023-07-13T00:51:43;100573.86;;;16.74;38.86
73518;BME280;61766;60.318;25.044;2023-07-13T00:54:08;100574.35;;;16.83;38.76
73518;BME280;61766;60.318;25.044;2023-07-13T00:56:32;100576.64;;;16.62;39.15
73518;BME280;61766;60.318;25.044;2023-07-13T00:58:57;100585.92;;;15.77;41.27
73518;BME280;61766;60.318;25.044;2023-07-13T01:01:22;100578.54;;;15.46;42.14
73518;BME280;61766;60.318;25.044;2023-07-13T01:03:48;100564.32;;;15.53;41.66
73518;BME280;61766;60.318;25.044;2023-07-13T01:06:13;100551.73;;;15.50;41.96
73518;BME280;61766;60.318;25.044;2023-07-13T01:08:38;100551.86;;;15.62;41.20
73518;BME280;61766;60.318;25.044;2023-07-13T01:11:04;100549.12;;;15.67;41.27
73518;BME280;61766;60.318;25.044;2023-07-13T01:13:29;100543.13;;;15.93;40.68
73518;BME280;61766;60.318;25.044;2023-07-13T01:15:55;100540.12;;;15.91;40.19
73518;BME280;61766;60.318;25.044;2023-07-13T01:18:21;100537.56;;;15.99;39.91
73518;BME280;61766;60.318;25.044;2023-07-13T01:20:51;100537.77;;;15.74;40.89
73518;BME280;61766;60.318;25.044;2023-07-13T01:23:10;100534.58;;;15.44;41.68
73518;BME280;61766;60.318;25.044;2023-07-13T01:25:34;100531.42;;;15.62;41.22
73518;BME280;61766;60.318;25.044;2023-07-13T01:27:59;100523.87;;;15.55;41.07
73518;BME280;61766;60.318;25.044;2023-07-13T01:30:24;100522.58;;;15.64;40.45
73518;BME280;61766;60.318;25.044;2023-07-13T01:32:49;100517.00;;;15.64;40.38
73518;BME280;61766;60.318;25.044;2023-07-13T01:35:14;100518.21;;;15.85;40.09
73518;BME280;61766;60.318;25.044;2023-07-13T01:37:39;100519.36;;;16.22;39.84
73518;BME280;61766;60.318;25.044;2023-07-13T01:40:05;100524.16;;;16.36;39.30
73518;BME280;61766;60.318;25.044;2023-07-13T01:42:31;100529.43;;;15.91;40.74
73518;BME280;61766;60.318;25.044;2023-07-13T01:44:55;100532.95;;;15.28;41.89
73518;BME280;61766;60.318;25.044;2023-07-13T01:47:20;100542.13;;;14.74;42.98
73518;BME280;61766;60.318;25.044;2023-07-13T01:49:45;100545.88;;;15.02;42.39
73518;BME280;61766;60.318;25.044;2023-07-13T01:52:10;100542.61;;;15.11;42.08
73518;BME280;61766;60.318;25.044;2023-07-13T01:54:35;100541.80;;;15.21;41.61
73518;BME280;61766;60.318;25.044;2023-07-13T01:57:00;100542.66;;;15.37;41.30
73518;BME280;61766;60.318;25.044;2023-07-13T01:59:25;100541.91;;;15.23;41.34
73518;BME280;61766;60.318;25.044;2023-07-13T02:01:50;100543.64;;;15.62;41.14
73518;BME280;61766;60.318;25.044;2023-07-13T02:04:15;100537.15;;;15.62;40.83
73518;BME280;61766;60.318;25.044;2023-07-13T02:06:41;100533.39;;;15.79;40.67
73518;BME280;61766;60.318;25.044;2023-07-13T02:09:06;100533.25;;;15.73;40.71
73518;BME280;61766;60.318;25.044;2023-07-13T02:11:32;100527.37;;;15.87;40.34
73518;BME280;61766;60.318;25.044;2023-07-13T02:13:56;100523.05;;;15.97;39.98
73518;BME280;61766;60.318;25.044;2023-07-13T02:16:22;100521.04;;;16.03;39.78
73518;BME280;61766;60.318;25.044;2023-07-13T02:18:47;100527.66;;;16.12;39.38
73518;BME280;61766;60.318;25.044;2023-07-13T02:21:12;100527.02;;;16.09;39.47
73518;BME280;61766;60.318;25.044;2023-07-13T02:23:37;100524.64;;;16.14;39.45
73518;BME280;61766;60.318;25.044;2023-07-13T02:26:03;100527.81;;;16.25;39.10
73518;BME280;61766;60.318;25.044;2023-07-13T02:28:27;100534.34;;;16.02;39.65
73518;BME280;61766;60.318;25.044;2023-07-13T02:30:52;100534.56;;;15.99;40.85
73518;BME280;61766;60.318;25.044;2023-07-13T02:33:17;100528.87;;;15.49;40.87
73518;BME280;61766;60.318;25.044;2023-07-13T02:35:42;100525.57;;;15.95;40.39
73518;BME280;61766;60.318;25.044;2023-07-13T02:38:07;100532.54;;;15.90;40.16
73518;BME280;61766;60.318;25.044;2023-07-13T02:40:32;100534.59;;;15.84;39.86
73518;BME280;61766;60.318;25.044;2023-07-13T02:42:57;100531.79;;;16.19;39.54
73518;BME280;61766;60.318;25.044;2023-07-13T02:45:22;100530.12;;;16.28;39.67
73518;BME280;61766;60.318;25.044;2023-07-13T02:47:47;100531.91;;;16.13;39.14
73518;BME280;61766;60.318;25.044;2023-07-13T02:50:12;100528.67;;;16.22;39.99
73518;BME280;61766;60.318;25.044;2023-07-13T02:52:37;100532.31;;;16.29;40.09
73518;BME280;61766;60.318;25.044;2023-07-13T02:55:03;100530.97;;;16.12;39.71
73518;BME280;61766;60.318;25.044;2023-07-13T02:57:28;100529.70;;;16.08;40.99
73518;BME280;61766;60.318;25.044;2023-07-13T02:59:53;100526.36;;;16.21;40.94
73518;BME280;61766;60.318;25.044;2023-07-13T03:02:18;100524.75;;;16.42;40.51
73518;BME280;61766;60.318;25.044;2023-07-13T03:04:44;100521.27;;;16.67;39.90
73518;BME280;61766;60.318;25.044;2023-07-13T03:07:10;100522.71;;;16.15;40.26
73518;BME280;61766;60.318;25.044;2023-07-13T03:09:39;100520.90;;;16.78;40.25
73518;BME280;61766;60.318;25.044;2023-07-13T03:12:02;100521.12;;;16.63;40.06
73518;BME280;61766;60.318;25.044;2023-07-13T03:14:27;100516.57;;;16.50;39.86
73518;BME280;61766;60.318;25.044;2023-07-13T03:16:53;100516.62;;;16.96;40.00
73518;BME280;61766;60.318;25.044;2023-07-13T03:19:19;100510.98;;;16.94;39.55
73518;BME280;61766;60.318;25.044;2023-07-13T03:21:44;100505.71;;;17.17;39.12
73518;BME280;61766;60.318;25.044;2023-07-13T03:24:10;100504.62;;;16.85;39.26
73518;BME280;61766;60.318;25.044;2023-07-13T03:26:35;100504.37;;;17.50;38.82
73518;BME280;61766;60.318;25.044;2023-07-13T03:29:01;100501.59;;;17.21;39.01
73518;BME280;61766;60.318;25.044;2023-07-13T03:31:29;100495.41;;;17.84;38.44
73518;BME280;61766;60.318;25.044;2023-07-13T03:33:52;100491.90;;;17.79;37.97
73518;BME280;61766;60.318;25.044;2023-07-13T03:36:20;100491.30;;;17.86;37.77
73518;BME280;61766;60.318;25.044;2023-07-13T03:38:45;100490.99;;;17.74;38.24
73518;BME280;61766;60.318;25.044;2023-07-13T03:41:10;100494.18;;;17.71;38.71
73518;BME280;61766;60.318;25.044;2023-07-13T03:43:36;100494.68;;;17.82;40.00
73518;BME280;61766;60.318;25.044;2023-07-13T03:46:02;100496.08;;;17.56;40.00
73518;BME280;61766;60.318;25.044;2023-07-13T03:48:27;100495.86;;;17.80;39.63
73518;BME280;61766;60.318;25.044;2023-07-13T03:50:53;100495.66;;;17.96;39.60
73518;BME280;61766;60.318;25.044;2023-07-13T03:53:19;100494.36;;;18.04;38.83
73518;BME280;61766;60.318;25.044;2023-07-13T03:55:44;100501.25;;;17.93;39.62
73518;BME280;61766;60.318;25.044;2023-07-13T03:58:25;100500.89;;;18.00;39.48
73518;BME280;61766;60.318;25.044;2023-07-13T04:00:36;100503.06;;;18.14;39.00
73518;BME280;61766;60.318;25.044;2023-07-13T04:03:02;100504.82;;;18.22;38.91
73518;BME280;61766;60.318;25.044;2023-07-13T04:05:28;100503.62;;;18.03;40.36
73518;BME280;61766;60.318;25.044;2023-07-13T04:07:54;100503.60;;;18.19;40.01
73518;BME280;61766;60.318;25.044;2023-07-13T04:10:19;100501.35;;;18.43;39.47
73518;BME280;61766;60.318;25.044;2023-07-13T04:12:45;100500.00;;;18.23;39.04
73518;BME280;61766;60.318;25.044;2023-07-13T04:15:12;100497.36;;;18.92;39.11
73518;BME280;61766;60.318;25.044;2023-07-13T04:17:37;100494.24;;;18.96;38.20
73518;BME280;61766;60.318;25.044;2023-07-13T04:20:03;100494.66;;;19.25;37.97
73518;BME280;61766;60.318;25.044;2023-07-13T04:22:28;100490.24;;;19.23;38.22
73518;BME280;61766;60.318;25.044;2023-07-13T04:24:54;100493.85;;;19.41;37.48
73518;BME280;61766;60.318;25.044;2023-07-13T04:27:20;100494.09;;;19.89;36.54
73518;BME280;61766;60.318;25.044;2023-07-13T04:29:46;100491.67;;;20.02;35.55
73518;BME280;61766;60.318;25.044;2023-07-13T04:32:11;100491.04;;;20.37;35.88
73518;BME280;61766;60.318;25.044;2023-07-13T04:34:37;100486.75;;;20.42;35.40
73518;BME280;61766;60.318;25.044;2023-07-13T04:37:03;100489.56;;;20.98;35.69
73518;BME280;61766;60.318;25.044;2023-07-13T04:39:28;100484.91;;;20.79;34.79
73518;BME280;61766;60.318;25.044;2023-07-13T04:41:54;100483.29;;;21.07;34.44
73518;BME280;61766;60.318;25.044;2023-07-13T04:44:19;100481.42;;;21.36;33.49
73518;BME280;61766;60.318;25.044;2023-07-13T04:46:45;100481.36;;;21.63;32.21
73518;BME280;61766;60.318;25.044;2023-07-13T04:49:11;100480.39;;;21.55;32.21
73518;BME280;61766;60.318;25.044;2023-07-13T04:51:36;100480.59;;;21.63;33.30
73518;BME280;61766;60.318;25.044;2023-07-13T04:54:02;100476.88;;;21.91;33.39
73518;BME280;61766;60.318;25.044;2023-07-13T04:56:28;100478.42;;;21.98;32.82
73518;BME280;61766;60.318;25.044;2023-07-13T04:58:54;100476.92;;;22.44;32.19
73518;BME280;61766;60.318;25.044;2023-07-13T05:01:19;100474.02;;;22.56;32.14
73518;BME280;61766;60.318;25.044;2023-07-13T05:03:45;100475.56;;;23.03;30.23
73518;BME280;61766;60.318;25.044;2023-07-13T05:06:11;100475.27;;;22.79;31.27
73518;BME280;61766;60.318;25.044;2023-07-13T05:08:37;100472.45;;;22.75;32.04
73518;BME280;61766;60.318;25.044;2023-07-13T05:11:03;100470.93;;;23.02;31.86
73518;BME280;61766;60.318;25.044;2023-07-13T05:13:28;100471.31;;;23.15;31.16
73518;BME280;61766;60.318;25.044;2023-07-13T05:15:59;100471.14;;;23.29;30.10
73518;BME280;61766;60.318;25.044;2023-07-13T05:18:19;100469.66;;;22.97;28.73
73518;BME280;61766;60.318;25.044;2023-07-13T05:20:45;100468.54;;;23.32;29.81
73518;BME280;61766;60.318;25.044;2023-07-13T05:23:11;100468.43;;;23.54;27.43
73518;BME280;61766;60.318;25.044;2023-07-13T05:25:36;100469.48;;;23.90;28.05
73518;BME280;61766;60.318;25.044;2023-07-13T05:28:02;100466.34;;;24.04;28.61
73518;BME280;61766;60.318;25.044;2023-07-13T05:30:28;100462.70;;;24.10;27.87
73518;BME280;61766;60.318;25.044;2023-07-13T05:32:54;100462.08;;;24.24;29.22
73518;BME280;61766;60.318;25.044;2023-07-13T05:35:19;100464.33;;;24.63;28.03
73518;BME280;61766;60.318;25.044;2023-07-13T05:37:45;100465.85;;;24.65;27.65
73518;BME280;61766;60.318;25.044;2023-07-13T05:40:11;100465.40;;;24.37;27.44
73518;BME280;61766;60.318;25.044;2023-07-13T05:42:36;100463.49;;;24.85;27.02
73518;BME280;61766;60.318;25.044;2023-07-13T05:45:03;100463.20;;;24.57;27.65
73518;BME280;61766;60.318;25.044;2023-07-13T05:47:28;100460.91;;;24.51;27.48
73518;BME280;61766;60.318;25.044;2023-07-13T05:49:53;100455.77;;;24.97;27.34
73518;BME280;61766;60.318;25.044;2023-07-13T05:52:19;100455.37;;;25.12;26.51
73518;BME280;61766;60.318;25.044;2023-07-13T05:54:44;100447.72;;;25.28;26.40
73518;BME280;61766;60.318;25.044;2023-07-13T05:57:10;100442.17;;;25.84;26.79
73518;BME280;61766;60.318;25.044;2023-07-13T05:59:36;100444.44;;;25.55;26.07
73518;BME280;61766;60.318;25.044;2023-07-13T06:02:01;100446.05;;;25.90;25.73
73518;BME280;61766;60.318;25.044;2023-07-13T06:04:27;100446.30;;;25.99;24.88
73518;BME280;61766;60.318;25.044;2023-07-13T06:06:53;100445.37;;;26.13;24.64
73518;BME280;61766;60.318;25.044;2023-07-13T06:09:18;100446.38;;;26.37;24.75
73518;BME280;61766;60.318;25.044;2023-07-13T06:11:44;100450.52;;;26.52;25.93
73518;BME280;61766;60.318;25.044;2023-07-13T06:14:10;100449.84;;;27.23;23.89
73518;BME280;61766;60.318;25.044;2023-07-13T06:16:35;100450.38;;;26.75;24.45
73518;BME280;61766;60.318;25.044;2023-07-13T06:19:01;100446.04;;;26.81;23.63
73518;BME280;61766;60.318;25.044;2023-07-13T06:21:27;100444.28;;;26.79;22.08
73518;BME280;61766;60.318;25.044;2023-07-13T06:23:53;100437.88;;;26.72;22.55
73518;BME280;61766;60.318;25.044;2023-07-13T06:26:19;100437.85;;;26.37;23.22
73518;BME280;61766;60.318;25.044;2023-07-13T06:28:44;100435.47;;;27.06;22.25
73518;BME280;61766;60.318;25.044;2023-07-13T06:31:11;100434.52;;;26.50;23.07
73518;BME280;61766;60.318;25.044;2023-07-13T06:33:36;100433.78;;;26.92;23.72
73518;BME280;61766;60.318;25.044;2023-07-13T06:36:01;100430.65;;;26.90;22.80
73518;BME280;61766;60.318;25.044;2023-07-13T06:38:26;100430.49;;;27.00;21.51
73518;BME280;61766;60.318;25.044;2023-07-13T06:40:52;100432.04;;;26.52;21.87
73518;BME280;61766;60.318;25.044;2023-07-13T06:43:18;100433.14;;;27.03;23.56
73518;BME280;61766;60.318;25.044;2023-07-13T06:45:45;100430.53;;;27.81;22.45
73518;BME280;61766;60.318;25.044;2023-07-13T06:48:09;100429.03;;;27.98;19.74
73518;BME280;61766;60.318;25.044;2023-07-13T06:50:34;100425.81;;;28.26;21.22
73518;BME280;61766;60.318;25.044;2023-07-13T06:53:00;100428.38;;;28.24;21.17
73518;BME280;61766;60.318;25.044;2023-07-13T06:55:26;100429.90;;;28.92;21.49
73518;BME280;61766;60.318;25.044;2023-07-13T06:57:51;100426.41;;;28.79;18.59
73518;BME280;61766;60.318;25.044;2023-07-13T07:00:18;100429.31;;;28.57;19.13
73518;BME280;61766;60.318;25.044;2023-07-13T07:02:42;100431.36;;;28.26;19.23
73518;BME280;61766;60.318;25.044;2023-07-13T07:05:08;100429.22;;;28.47;18.97
73518;BME280;61766;60.318;25.044;2023-07-13T07:07:34;100428.46;;;28.28;19.00
73518;BME280;61766;60.318;25.044;2023-07-13T07:09:59;100424.87;;;28.52;18.54
73518;BME280;61766;60.318;25.044;2023-07-13T07:12:25;100427.40;;;27.18;18.78
73518;BME280;61766;60.318;25.044;2023-07-13T07:14:51;100425.10;;;27.64;19.84
73518;BME280;61766;60.318;25.044;2023-07-13T07:17:16;100423.73;;;28.12;18.94
73518;BME280;61766;60.318;25.044;2023-07-13T07:19:42;100428.91;;;28.60;18.65
73518;BME280;61766;60.318;25.044;2023-07-13T07:22:07;100423.55;;;27.88;19.23
73518;BME280;61766;60.318;25.044;2023-07-13T07:24:33;100427.36;;;28.92;18.43
73518;BME280;61766;60.318;25.044;2023-07-13T07:26:59;100424.30;;;28.74;16.46
73518;BME280;61766;60.318;25.044;2023-07-13T07:29:24;100420.56;;;28.51;16.65
73518;BME280;61766;60.318;25.044;2023-07-13T07:31:50;100417.24;;;28.84;18.16
73518;BME280;61766;60.318;25.044;2023-07-13T07:34:16;100414.58;;;29.65;16.63
73518;BME280;61766;60.318;25.044;2023-07-13T07:36:41;100418.58;;;29.15;17.26
73518;BME280;61766;60.318;25.044;2023-07-13T07:39:06;100415.11;;;28.25;17.59
73518;BME280;61766;60.318;25.044;2023-07-13T07:41:31;100408.39;;;29.16;17.12
73518;BME280;61766;60.318;25.044;2023-07-13T07:43:57;100400.68;;;29.60;15.83
73518;BME280;61766;60.318;25.044;2023-07-13T07:46:22;100396.05;;;30.10;16.15
73518;BME280;61766;60.318;25.044;2023-07-13T07:48:48;100400.57;;;30.68;15.68
73518;BME280;61766;60.318;25.044;2023-07-13T07:51:14;100399.38;;;29.58;16.88
73518;BME280;61766;60.318;25.044;2023-07-13T07:53:39;100392.94;;;29.98;18.05
73518;BME280;61766;60.318;25.044;2023-07-13T07:56:05;100399.57;;;27.88;17.14
73518;BME280;61766;60.318;25.044;2023-07-13T07:58:31;100397.25;;;28.85;16.91
73518;BME280;61766;60.318;25.044;2023-07-13T08:03:22;100395.39;;;29.77;17.30
73518;BME280;61766;60.318;25.044;2023-07-13T08:05:47;100395.23;;;29.68;17.22
73518;BME280;61766;60.318;25.044;2023-07-13T08:08:13;100397.47;;;30.37;16.07
73518;BME280;61766;60.318;25.044;2023-07-13T08:10:39;100400.52;;;29.92;16.97
73518;BME280;61766;60.318;25.044;2023-07-13T08:13:04;100392.46;;;30.41;15.68
73518;BME280;61766;60.318;25.044;2023-07-13T08:15:30;100388.40;;;29.97;16.06
73518;BME280;61766;60.318;25.044;2023-07-13T08:17:55;100384.79;;;30.26;17.51
73518;BME280;61766;60.318;25.044;2023-07-13T08:20:21;100386.39;;;30.53;16.87
73518;BME280;61766;60.318;25.044;2023-07-13T08:22:47;100390.17;;;28.93;17.36
73518;BME280;61766;60.318;25.044;2023-07-13T08:25:12;100394.97;;;27.66;18.82
73518;BME280;61766;60.318;25.044;2023-07-13T08:27:38;100388.61;;;28.61;17.84
73518;BME280;61766;60.318;25.044;2023-07-13T08:30:04;100388.21;;;28.25;18.84
73518;BME280;61766;60.318;25.044;2023-07-13T08:32:29;100393.48;;;29.38;18.66
73518;BME280;61766;60.318;25.044;2023-07-13T08:34:55;100393.57;;;29.85;18.20
73518;BME280;61766;60.318;25.044;2023-07-13T08:37:21;100402.21;;;29.57;17.86
73518;BME280;61766;60.318;25.044;2023-07-13T08:39:46;100394.22;;;28.88;18.30
73518;BME280;61766;60.318;25.044;2023-07-13T08:42:21;100388.29;;;29.35;18.58
73518;BME280;61766;60.318;25.044;2023-07-13T08:44:47;100388.13;;;28.44;18.84
73518;BME280;61766;60.318;25.044;2023-07-13T08:47:03;100389.56;;;28.43;18.47
73518;BME280;61766;60.318;25.044;2023-07-13T08:49:29;100387.51;;;28.87;18.49
73518;BME280;61766;60.318;25.044;2023-07-13T08:51:57;100386.98;;;28.88;20.04
73518;BME280;61766;60.318;25.044;2023-07-13T08:54:26;100390.44;;;29.81;17.55
73518;BME280;61766;60.318;25.044;2023-07-13T08:56:48;100395.44;;;29.21;17.46
73518;BME280;61766;60.318;25.044;2023-07-13T08:59:16;100395.21;;;29.11;17.35
73518;BME280;61766;60.318;25.044;2023-07-13T09:01:51;100397.14;;;29.00;17.60
73518;BME280;61766;60.318;25.044;2023-07-13T09:04:06;100394.35;;;28.59;18.12
73518;BME280;61766;60.318;25.044;2023-07-13T09:06:36;100396.04;;;29.20;17.94
73518;BME280;61766;60.318;25.044;2023-07-13T09:08:59;100398.62;;;28.76;18.68
73518;BME280;61766;60.318;25.044;2023-07-13T09:11:30;100397.71;;;28.99;18.90
73518;BME280;61766;60.318;25.044;2023-07-13T09:13:53;100391.50;;;29.46;18.21
73518;BME280;61766;60.318;25.044;2023-07-13T09:16:11;100398.00;;;28.61;19.17
73518;BME280;61766;60.318;25.044;2023-07-13T09:18:38;100396.20;;;28.86;18.90
73518;BME280;61766;60.318;25.044;2023-07-13T09:21:03;100397.85;;;29.28;18.20
73518;BME280;61766;60.318;25.044;2023-07-13T09:23:30;100400.14;;;29.26;18.83
73518;BME280;61766;60.318;25.044;2023-07-13T09:25:58;100402.80;;;29.22;19.21
73518;BME280;61766;60.318;25.044;2023-07-13T09:28:22;100405.61;;;29.44;17.81
73518;BME280;61766;60.318;25.044;2023-07-13T09:30:51;100405.04;;;28.93;17.88
73518;BME280;61766;60.318;25.044;2023-07-13T09:33:10;100398.36;;;28.81;17.75
73518;BME280;61766;60.318;25.044;2023-07-13T09:35:35;100399.60;;;27.83;18.48
73518;BME280;61766;60.318;25.044;2023-07-13T09:38:04;100407.03;;;29.71;17.52
73518;BME280;61766;60.318;25.044;2023-07-13T09:40:30;100404.53;;;29.50;17.35
73518;BME280;61766;60.318;25.044;2023-07-13T09:42:52;100399.95;;;29.60;17.28
73518;BME280;61766;60.318;25.044;2023-07-13T09:47:43;100402.34;;;30.22;16.89
73518;BME280;61766;60.318;25.044;2023-07-13T09:50:14;100393.73;;;30.43;18.19
73518;BME280;61766;60.318;25.044;2023-07-13T09:52:41;100390.28;;;30.92;16.35
73518;BME280;61766;60.318;25.044;2023-07-13T09:55:00;100391.77;;;30.82;15.99
73518;BME280;61766;60.318;25.044;2023-07-13T09:57:27;100394.49;;;30.70;15.89
73518;BME280;61766;60.318;25.044;2023-07-13T09:59:53;100397.29;;;29.63;16.53
73518;BME280;61766;60.318;25.044;2023-07-13T10:02:23;100390.78;;;29.69;18.00
73518;BME280;61766;60.318;25.044;2023-07-13T10:04:42;100384.89;;;30.62;17.54
73518;BME280;61766;60.318;25.044;2023-07-13T10:07:11;100388.54;;;29.84;16.24
73518;BME280;61766;60.318;25.044;2023-07-13T10:09:34;100388.64;;;30.59;16.50
73518;BME280;61766;60.318;25.044;2023-07-13T10:11:59;100387.92;;;31.30;16.05
73518;BME280;61766;60.318;25.044;2023-07-13T10:14:26;100384.64;;;30.74;17.00
73518;BME280;61766;60.318;25.044;2023-07-13T10:16:59;100393.72;;;30.14;16.16
73518;BME280;61766;60.318;25.044;2023-07-13T10:19:21;100388.51;;;29.79;16.77
73518;BME280;61766;60.318;25.044;2023-07-13T10:21:46;100398.21;;;29.05;18.03
73518;BME280;61766;60.318;25.044;2023-07-13T10:24:14;100396.36;;;28.48;18.72
73518;BME280;61766;60.318;25.044;2023-07-13T10:26:34;100392.06;;;29.80;18.12
73518;BME280;61766;60.318;25.044;2023-07-13T10:29:01;100407.59;;;28.89;18.87
73518;BME280;61766;60.318;25.044;2023-07-13T10:31:24;100405.08;;;27.55;20.29
73518;BME280;61766;60.318;25.044;2023-07-13T10:33:50;100396.41;;;27.45;20.45
73518;BME280;61766;60.318;25.044;2023-07-13T10:36:20;100399.72;;;28.32;20.09
73518;BME280;61766;60.318;25.044;2023-07-13T10:38:41;100399.99;;;28.33;19.49
73518;BME280;61766;60.318;25.044;2023-07-13T10:41:10;100404.98;;;28.32;19.77
73518;BME280;61766;60.318;25.044;2023-07-13T10:43:37;100403.38;;;28.46;19.40
73518;BME280;61766;60.318;25.044;2023-07-13T10:45:59;100408.52;;;28.99;17.99
73518;BME280;61766;60.318;25.044;2023-07-13T10:48:24;100409.81;;;28.51;18.19
73518;BME280;61766;60.318;25.044;2023-07-13T10:50:52;100410.91;;;28.41;17.82
73518;BME280;61766;60.318;25.044;2023-07-13T10:53:27;100408.01;;;28.34;18.03
73518;BME280;61766;60.318;25.044;2023-07-13T10:55:42;100405.59;;;28.81;18.34
73518;BME280;61766;60.318;25.044;2023-07-13T10:58:12;100402.24;;;27.59;19.01
73518;BME280;61766;60.318;25.044;2023-07-13T11:00:34;100401.26;;;27.61;18.57
73518;BME280;61766;60.318;25.044;2023-07-13T11:03:00;100399.71;;;27.96;18.72
73518;BME280;61766;60.318;25.044;2023-07-13T11:05:30;100391.85;;;28.60;18.00
73518;BME280;61766;60.318;25.044;2023-07-13T11:07:56;100386.66;;;29.80;17.87
73518;BME280;61766;60.318;25.044;2023-07-13T11:12:50;100379.55;;;29.41;16.67
73518;BME280;61766;60.318;25.044;2023-07-13T11:15:10;100378.72;;;28.78;16.98
73518;BME280;61766;60.318;25.044;2023-07-13T11:17:45;100381.25;;;29.36;17.94
73518;BME280;61766;60.318;25.044;2023-07-13T11:20:04;100379.32;;;29.21;17.15
73518;BME280;61766;60.318;25.044;2023-07-13T11:25:00;100380.79;;;29.42;18.13
73518;BME280;61766;60.318;25.044;2023-07-13T11:27:22;100379.24;;;30.04;16.50
73518;BME280;61766;60.318;25.044;2023-07-13T11:29:40;100386.04;;;29.52;16.59
73518;BME280;61766;60.318;25.044;2023-07-13T11:34:35;100390.64;;;27.96;17.97
73518;BME280;61766;60.318;25.044;2023-07-13T11:36:56;100392.39;;;28.52;18.69
73518;BME280;61766;60.318;25.044;2023-07-13T11:39:24;100391.60;;;27.93;18.83
73518;BME280;61766;60.318;25.044;2023-07-13T11:41:50;100387.89;;;28.09;19.07
73518;BME280;61766;60.318;25.044;2023-07-13T11:44:16;100388.42;;;28.64;18.34
73518;BME280;61766;60.318;25.044;2023-07-13T11:46:38;100388.01;;;28.23;17.50
73518;BME280;61766;60.318;25.044;2023-07-13T11:49:04;100387.42;;;28.83;17.59
73518;BME280;61766;60.318;25.044;2023-07-13T11:51:31;100384.61;;;28.87;17.57
73518;BME280;61766;60.318;25.044;2023-07-13T11:53:57;100380.68;;;27.64;18.50
73518;BME280;61766;60.318;25.044;2023-07-13T11:56:21;100383.39;;;27.72;18.50
73518;BME280;61766;60.318;25.044;2023-07-13T11:58:48;100386.96;;;27.24;18.47
73518;BME280;61766;60.318;25.044;2023-07-13T12:01:20;100390.34;;;28.37;18.15
73518;BME280;61766;60.318;25.044;2023-07-13T12:03:38;100390.98;;;28.81;17.39
73518;BME280;61766;60.318;25.044;2023-07-13T12:06:05;100392.39;;;28.86;17.32
73518;BME280;61766;60.318;25.044;2023-07-13T12:08:29;100399.37;;;27.25;17.80
73518;BME280;61766;60.318;25.044;2023-07-13T12:11:00;100391.93;;;26.56;17.89
73518;BME280;61766;60.318;25.044;2023-07-13T12:13:20;100389.59;;;27.13;17.67
73518;BME280;61766;60.318;25.044;2023-07-13T12:15:47;100387.07;;;28.05;17.39
73518;BME280;61766;60.318;25.044;2023-07-13T12:18:19;100385.27;;;28.96;17.73
73518;BME280;61766;60.318;25.044;2023-07-13T12:20:39;100393.44;;;28.98;16.26
73518;BME280;61766;60.318;25.044;2023-07-13T12:23:04;100389.80;;;28.76;16.69
73518;BME280;61766;60.318;25.044;2023-07-13T12:25:29;100387.22;;;28.33;17.36
73518;BME280;61766;60.318;25.044;2023-07-13T12:27:54;100388.12;;;28.52;17.11
73518;BME280;61766;60.318;25.044;2023-07-13T12:30:26;100384.93;;;28.00;16.99
73518;BME280;61766;60.318;25.044;2023-07-13T12:35:16;100387.99;;;27.87;17.29
73518;BME280;61766;60.318;25.044;2023-07-13T12:37:37;100386.44;;;28.42;17.58
73518;BME280;61766;60.318;25.044;2023-07-13T12:40:02;100388.77;;;28.99;16.62
73518;BME280;61766;60.318;25.044;2023-07-13T12:42:31;100390.55;;;28.84;16.92
73518;BME280;61766;60.318;25.044;2023-07-13T12:44:53;100389.68;;;28.07;17.06